createdAt,value
2016-12-13T00:00:50.293Z,0
2016-12-13T00:01:50.266Z,0
2016-12-13T00:02:50.887Z,0
2016-12-13T00:03:50.236Z,0
2016-12-13T00:04:50.215Z,0
2016-12-13T00:05:50.512Z,0
2016-12-13T00:06:50.187Z,0
2016-12-13T00:07:50.487Z,0
2016-12-13T00:08:50.163Z,0
2016-12-13T00:09:50.127Z,0
2016-12-13T00:10:50.113Z,0
2016-12-13T00:11:50.106Z,0
2016-12-13T00:12:50.083Z,0
2016-12-13T00:13:50.067Z,0
2016-12-13T00:14:50.255Z,0
2016-12-13T00:15:50.027Z,0
2016-12-13T00:16:50.335Z,0
2016-12-13T00:17:49.995Z,0
2016-12-13T00:18:49.972Z,0
2016-12-13T00:19:49.995Z,0
2016-12-13T00:20:49.943Z,0
2016-12-13T00:21:50.255Z,0
2016-12-13T00:22:49.904Z,0
2016-12-13T00:23:50.204Z,0
2016-12-13T00:24:49.876Z,0
2016-12-13T00:25:50.167Z,0
2016-12-13T00:26:49.833Z,0
2016-12-13T00:27:49.818Z,0
2016-12-13T00:28:49.804Z,0
2016-12-13T00:29:49.790Z,0
2016-12-13T00:30:49.792Z,0
2016-12-13T00:31:49.751Z,0
2016-12-13T00:32:50.050Z,0
2016-12-13T00:33:49.726Z,0
2016-12-13T00:34:49.693Z,0
2016-12-13T00:35:49.998Z,0
2016-12-13T00:36:49.659Z,0
2016-12-13T00:37:49.640Z,0
2016-12-13T00:38:49.636Z,0
2016-12-13T00:39:49.609Z,0
2016-12-13T00:40:49.591Z,0
2016-12-13T00:41:49.571Z,0
2016-12-13T00:42:49.894Z,0
2016-12-13T00:43:49.538Z,0
2016-12-13T00:44:49.834Z,0
2016-12-13T00:45:49.504Z,0
2016-12-13T00:46:49.481Z,0
2016-12-13T00:47:49.467Z,0
2016-12-13T00:48:49.448Z,0
2016-12-13T00:49:49.427Z,0
2016-12-13T00:50:49.414Z,0
2016-12-13T00:51:49.397Z,0
2016-12-13T00:52:49.388Z,0
2016-12-13T00:53:49.366Z,0
2016-12-13T00:54:49.344Z,0
2016-12-13T00:55:49.323Z,0
2016-12-13T00:56:49.307Z,0
2016-12-13T00:57:49.291Z,0
2016-12-13T00:58:49.586Z,0
2016-12-13T00:59:49.567Z,0
2016-12-13T01:00:49.237Z,0
2016-12-13T01:01:49.217Z,0
2016-12-13T01:02:49.201Z,0
2016-12-13T01:03:49.185Z,0
2016-12-13T01:04:49.197Z,0
2016-12-13T01:05:49.147Z,0
2016-12-13T01:06:49.129Z,0
2016-12-13T01:07:49.434Z,0
2016-12-13T01:08:49.094Z,0
2016-12-13T01:09:49.394Z,0
2016-12-13T01:10:49.062Z,0
2016-12-13T01:11:49.039Z,0
2016-12-13T01:12:49.024Z,0
2016-12-13T01:13:49.011Z,0
2016-12-13T01:14:48.991Z,0
2016-12-13T01:15:48.969Z,0
2016-12-13T01:16:48.951Z,0
2016-12-13T01:17:48.943Z,0
2016-12-13T01:18:48.919Z,0
2016-12-13T01:19:48.900Z,0
2016-12-13T01:20:48.904Z,0
2016-12-13T01:21:48.863Z,0
2016-12-13T01:22:49.162Z,0
2016-12-13T01:23:48.825Z,0
2016-12-13T01:24:48.812Z,0
2016-12-13T01:25:48.790Z,0
2016-12-13T01:26:48.792Z,0
2016-12-13T01:27:48.760Z,0
2016-12-13T01:28:49.052Z,0
2016-12-13T01:29:48.723Z,0
2016-12-13T01:30:48.706Z,0
2016-12-13T01:31:48.687Z,0
2016-12-13T01:32:48.668Z,0
2016-12-13T01:33:48.979Z,0
2016-12-13T01:34:48.947Z,0
2016-12-13T01:35:48.932Z,0
2016-12-13T01:36:48.918Z,0
2016-12-13T01:37:48.918Z,0
2016-12-13T01:38:48.560Z,0
2016-12-13T01:39:48.544Z,0
2016-12-13T01:40:48.527Z,0
2016-12-13T01:41:48.511Z,0
2016-12-13T01:42:48.803Z,0
2016-12-13T01:43:48.472Z,0
2016-12-13T01:44:48.457Z,0
2016-12-13T01:45:48.748Z,0
2016-12-13T01:46:48.421Z,0
2016-12-13T01:47:48.404Z,0
2016-12-13T01:48:48.389Z,0
2016-12-13T01:49:48.370Z,0
2016-12-13T01:50:48.349Z,0
2016-12-13T01:51:48.340Z,0
2016-12-13T01:52:48.630Z,0
2016-12-13T01:53:48.633Z,0
2016-12-13T01:54:48.309Z,0
2016-12-13T01:55:48.279Z,0
2016-12-13T01:56:48.261Z,0
2016-12-13T01:57:48.236Z,0
2016-12-13T01:58:48.218Z,0
2016-12-13T01:59:48.191Z,0
2016-12-13T02:00:48.484Z,0
2016-12-13T02:01:48.181Z,0
2016-12-13T02:02:48.142Z,0
2016-12-13T02:03:48.434Z,0
2016-12-13T02:04:48.104Z,0
2016-12-13T02:05:48.116Z,0
2016-12-13T02:06:48.064Z,0
2016-12-13T02:07:48.053Z,0
2016-12-13T02:08:48.030Z,0
2016-12-13T02:09:48.013Z,0
2016-12-13T02:10:48.042Z,0
2016-12-13T02:11:47.973Z,0
2016-12-13T02:12:47.963Z,0
2016-12-13T02:13:47.974Z,0
2016-12-13T02:14:48.327Z,0
2016-12-13T02:15:48.228Z,0
2016-12-13T02:16:48.232Z,0
2016-12-13T02:17:47.876Z,0
2016-12-13T02:18:48.169Z,0
2016-12-13T02:19:47.833Z,0
2016-12-13T02:20:47.822Z,0
2016-12-13T02:21:48.110Z,0
2016-12-13T02:22:48.096Z,0
2016-12-13T02:23:47.768Z,0
2016-12-13T02:24:48.061Z,0
2016-12-13T02:25:48.041Z,0
2016-12-13T02:26:47.713Z,0
2016-12-13T02:27:47.696Z,0
2016-12-13T02:28:47.997Z,0
2016-12-13T02:29:48.288Z,0
2016-12-13T02:30:47.643Z,0
2016-12-13T02:31:47.934Z,0
2016-12-13T02:32:47.604Z,0
2016-12-13T02:33:47.586Z,0
2016-12-13T02:34:47.571Z,0
2016-12-13T02:35:47.550Z,0
2016-12-13T02:36:47.842Z,0
2016-12-13T02:37:47.518Z,0
2016-12-13T02:38:47.817Z,0
2016-12-13T02:39:47.505Z,0
2016-12-13T02:40:47.457Z,0
2016-12-13T02:41:47.763Z,0
2016-12-13T02:42:47.424Z,0
2016-12-13T02:43:47.719Z,0
2016-12-13T02:44:47.388Z,0
2016-12-13T02:45:47.367Z,0
2016-12-13T02:46:47.353Z,0
2016-12-13T02:47:47.328Z,0
2016-12-13T02:48:47.315Z,0
2016-12-13T02:49:47.297Z,0
2016-12-13T02:50:47.283Z,0
2016-12-13T02:51:47.893Z,0
2016-12-13T02:52:47.564Z,0
2016-12-13T02:53:47.225Z,0
2016-12-13T02:54:47.209Z,0
2016-12-13T02:55:47.191Z,0
2016-12-13T02:56:47.497Z,0
2016-12-13T02:57:47.149Z,0
2016-12-13T02:58:47.136Z,0
2016-12-13T02:59:47.114Z,0
2016-12-13T03:00:47.101Z,0
2016-12-13T03:01:47.390Z,0
2016-12-13T03:02:47.060Z,0
2016-12-13T03:03:47.352Z,0
2016-12-13T03:04:47.031Z,0
2016-12-13T03:05:47.008Z,0
2016-12-13T03:06:47.480Z,0
2016-12-13T03:07:47.280Z,0
2016-12-13T03:08:46.983Z,0
2016-12-13T03:09:46.929Z,0
2016-12-13T03:10:46.920Z,0
2016-12-13T03:11:46.902Z,0
2016-12-13T03:12:46.876Z,0
2016-12-13T03:13:46.858Z,0
2016-12-13T03:14:46.859Z,0
2016-12-13T03:15:46.846Z,0
2016-12-13T03:16:47.117Z,0
2016-12-13T03:17:46.787Z,0
2016-12-13T03:18:46.774Z,0
2016-12-13T03:19:47.381Z,0
2016-12-13T03:20:46.736Z,0
2016-12-13T03:21:47.024Z,0
2016-12-13T03:22:47.003Z,0
2016-12-13T03:23:46.675Z,0
2016-12-13T03:24:47.288Z,0
2016-12-13T03:25:46.674Z,0
2016-12-13T03:26:46.622Z,0
2016-12-13T03:27:46.602Z,0
2016-12-13T03:28:46.583Z,0
2016-12-13T03:29:46.878Z,0
2016-12-13T03:30:46.553Z,0
2016-12-13T03:31:46.527Z,0
2016-12-13T03:32:46.507Z,0
2016-12-13T03:33:46.488Z,0
2016-12-13T03:34:46.790Z,0
2016-12-13T03:35:46.773Z,0
2016-12-13T03:36:47.068Z,0
2016-12-13T03:37:46.418Z,0
2016-12-13T03:38:46.399Z,0
2016-12-13T03:39:46.375Z,0
2016-12-13T03:40:46.359Z,0
2016-12-13T03:41:46.345Z,0
2016-12-13T03:42:46.643Z,0
2016-12-13T03:43:46.622Z,0
2016-12-13T03:44:46.602Z,0
2016-12-13T03:45:46.275Z,0
2016-12-13T03:46:46.255Z,0
2016-12-13T03:47:46.232Z,0
2016-12-13T03:48:46.555Z,0
2016-12-13T03:49:46.230Z,0
2016-12-13T03:50:46.179Z,0
2016-12-13T03:51:46.472Z,0
2016-12-13T03:52:46.146Z,0
2016-12-13T03:53:46.122Z,0
2016-12-13T03:54:46.101Z,0
2016-12-13T03:55:46.090Z,0
2016-12-13T03:56:46.380Z,0
2016-12-13T03:57:46.064Z,0
2016-12-13T03:58:46.041Z,0
2016-12-13T03:59:46.019Z,0
2016-12-13T04:00:46.009Z,0
2016-12-13T04:01:45.979Z,0
2016-12-13T04:02:46.588Z,0
2016-12-13T04:03:45.944Z,0
2016-12-13T04:04:46.240Z,0
2016-12-13T04:05:45.904Z,0
2016-12-13T04:06:45.906Z,0
2016-12-13T04:07:45.885Z,0
2016-12-13T04:08:46.171Z,0
2016-12-13T04:09:46.164Z,0
2016-12-13T04:10:45.814Z,0
2016-12-13T04:11:45.795Z,0
2016-12-13T04:12:45.779Z,0
2016-12-13T04:13:45.764Z,0
2016-12-13T04:14:45.742Z,0
2016-12-13T04:15:45.732Z,0
2016-12-13T04:16:46.012Z,0
2016-12-13T04:17:46.009Z,0
2016-12-13T04:18:45.665Z,0
2016-12-13T04:19:45.659Z,0
2016-12-13T04:20:45.941Z,0
2016-12-13T04:21:45.929Z,0
2016-12-13T04:22:45.600Z,0
2016-12-13T04:23:45.582Z,0
2016-12-13T04:24:45.912Z,0
2016-12-13T04:25:45.541Z,0
2016-12-13T04:26:45.532Z,0
2016-12-13T04:27:45.510Z,0
2016-12-13T04:28:45.511Z,0
2016-12-13T04:29:45.795Z,0
2016-12-13T04:30:45.448Z,0
2016-12-13T04:31:45.433Z,0
2016-12-13T04:32:45.418Z,0
2016-12-13T04:33:45.420Z,0
2016-12-13T04:34:45.405Z,0
2016-12-13T04:35:45.357Z,0
2016-12-13T04:36:45.345Z,0
2016-12-13T04:37:45.648Z,0
2016-12-13T04:38:45.305Z,0
2016-12-13T04:39:45.613Z,0
2016-12-13T04:40:45.273Z,0
2016-12-13T04:41:45.251Z,0
2016-12-13T04:42:45.244Z,0
2016-12-13T04:43:45.216Z,0
2016-12-13T04:44:45.198Z,0
2016-12-13T04:45:45.177Z,0
2016-12-13T04:46:45.790Z,0
2016-12-13T04:47:45.148Z,0
2016-12-13T04:48:45.139Z,0
2016-12-13T04:49:45.107Z,0
2016-12-13T04:50:45.092Z,0
2016-12-13T04:51:45.692Z,0
2016-12-13T04:52:45.053Z,0
2016-12-13T04:53:45.352Z,0
2016-12-13T04:54:45.018Z,0
2016-12-13T04:55:45.004Z,0
2016-12-13T04:56:44.970Z,0
2016-12-13T04:57:44.962Z,0
2016-12-13T04:58:44.942Z,0
2016-12-13T04:59:44.949Z,0
2016-12-13T05:00:44.909Z,0
2016-12-13T05:01:44.885Z,0
2016-12-13T05:02:44.875Z,0
2016-12-13T05:03:44.849Z,0
2016-12-13T05:04:44.836Z,0
2016-12-13T05:05:44.814Z,0
2016-12-13T05:06:44.805Z,0
2016-12-13T05:07:44.792Z,0
2016-12-13T05:08:45.102Z,0
2016-12-13T05:09:44.767Z,0
2016-12-13T05:10:44.751Z,0
2016-12-13T05:11:44.707Z,0
2016-12-13T05:12:44.705Z,0
2016-12-13T05:13:44.986Z,0
2016-12-13T05:14:44.661Z,0
2016-12-13T05:15:44.635Z,0
2016-12-13T05:16:44.620Z,0
2016-12-13T05:17:44.597Z,0
2016-12-13T05:18:44.591Z,0
2016-12-13T05:19:44.874Z,0
2016-12-13T05:20:44.540Z,0
2016-12-13T05:21:44.839Z,0
2016-12-13T05:22:44.821Z,0
2016-12-13T05:23:44.488Z,0
2016-12-13T05:24:44.784Z,0
2016-12-13T05:25:44.457Z,0
2016-12-13T05:26:44.429Z,0
2016-12-13T05:27:44.412Z,0
2016-12-13T05:28:44.707Z,0
2016-12-13T05:29:44.377Z,0
2016-12-13T05:30:44.671Z,0
2016-12-13T05:31:44.655Z,0
2016-12-13T05:32:44.640Z,0
2016-12-13T05:33:44.308Z,0
2016-12-13T05:34:44.601Z,0
2016-12-13T05:35:44.269Z,0
2016-12-13T05:36:44.255Z,0
2016-12-13T05:37:44.232Z,0
2016-12-13T05:38:44.219Z,0
2016-12-13T05:39:44.212Z,0
2016-12-13T05:40:44.177Z,0
2016-12-13T05:41:44.161Z,0
2016-12-13T05:42:44.143Z,0
2016-12-13T05:43:44.129Z,0
2016-12-13T05:44:44.115Z,0
2016-12-13T05:45:44.299Z,0
2016-12-13T05:46:44.076Z,0
2016-12-13T05:47:44.377Z,0
2016-12-13T05:48:44.351Z,0
2016-12-13T05:49:44.024Z,0
2016-12-13T05:50:44.315Z,0
2016-12-13T05:51:44.302Z,0
2016-12-13T05:52:43.960Z,0
2016-12-13T05:53:43.949Z,0
2016-12-13T05:54:44.551Z,0
2016-12-13T05:55:43.913Z,0
2016-12-13T05:56:43.931Z,0
2016-12-13T05:57:43.877Z,0
2016-12-13T05:58:43.861Z,0
2016-12-13T05:59:43.836Z,0
2016-12-13T06:00:44.142Z,0
2016-12-13T06:01:43.811Z,0
2016-12-13T06:02:44.411Z,0
2016-12-13T06:03:43.846Z,0
2016-12-13T06:04:44.072Z,0
2016-12-13T06:05:43.741Z,0
2016-12-13T06:06:43.714Z,0
2016-12-13T06:07:44.009Z,0
2016-12-13T06:08:43.994Z,0
2016-12-13T06:09:43.657Z,0
2016-12-13T06:10:43.654Z,0
2016-12-13T06:11:43.627Z,0
2016-12-13T06:12:43.929Z,0
2016-12-13T06:13:43.588Z,0
2016-12-13T06:14:43.568Z,0
2016-12-13T06:15:43.750Z,0
2016-12-13T06:16:43.844Z,0
2016-12-13T06:17:43.521Z,0
2016-12-13T06:18:43.809Z,0
2016-12-13T06:19:43.480Z,0
2016-12-13T06:20:43.460Z,0
2016-12-13T06:21:43.453Z,0
2016-12-13T06:22:43.484Z,0
2016-12-13T06:23:44.149Z,0
2016-12-13T06:24:44.371Z,0
2016-12-13T06:25:44.017Z,0
2016-12-13T06:26:43.994Z,0
2016-12-13T06:27:43.973Z,0
2016-12-13T06:28:43.647Z,0
2016-12-13T06:29:43.313Z,0
2016-12-13T06:30:43.282Z,0
2016-12-13T06:31:43.316Z,0
2016-12-13T06:32:43.247Z,0
2016-12-13T06:33:43.547Z,0
2016-12-13T06:34:43.213Z,0
2016-12-13T06:35:43.226Z,0
2016-12-13T06:36:43.183Z,0
2016-12-13T06:37:43.160Z,0
2016-12-13T06:38:43.144Z,0
2016-12-13T06:39:43.136Z,0
2016-12-13T06:40:43.115Z,0
2016-12-13T06:41:43.093Z,0
2016-12-13T06:42:43.078Z,0
2016-12-13T06:43:43.060Z,0
2016-12-13T06:44:43.043Z,0
2016-12-13T06:45:43.336Z,0
2016-12-13T06:46:43.008Z,0
2016-12-13T06:47:42.992Z,0
2016-12-13T06:48:43.291Z,0
2016-12-13T06:49:42.953Z,0
2016-12-13T06:50:42.936Z,0
2016-12-13T06:51:42.923Z,0
2016-12-13T06:52:42.907Z,0
2016-12-13T06:53:43.198Z,0
2016-12-13T06:54:43.181Z,0
2016-12-13T06:55:43.504Z,4
2016-12-13T06:56:42.830Z,4
2016-12-13T06:57:43.132Z,4
2016-12-13T06:58:43.112Z,0
2016-12-13T06:59:42.783Z,0
2016-12-13T07:00:43.069Z,0
2016-12-13T07:01:43.389Z,4
2016-12-13T07:02:43.357Z,4
2016-12-13T07:03:43.021Z,4
2016-12-13T07:04:42.721Z,4
2016-12-13T07:05:42.675Z,8
2016-12-13T07:06:42.656Z,4
2016-12-13T07:07:42.951Z,4
2016-12-13T07:08:42.934Z,8
2016-12-13T07:09:42.916Z,8
2016-12-13T07:10:42.586Z,12
2016-12-13T07:11:43.202Z,12
2016-12-13T07:12:42.550Z,12
2016-12-13T07:13:43.163Z,12
2016-12-13T07:14:42.512Z,16
2016-12-13T07:15:42.811Z,16
2016-12-13T07:16:42.483Z,20
2016-12-13T07:17:42.467Z,24
2016-12-13T07:18:42.456Z,24
2016-12-13T07:19:42.428Z,28
2016-12-13T07:20:42.417Z,28
2016-12-13T07:21:42.442Z,32
2016-12-13T07:22:43.007Z,36
2016-12-13T07:23:42.359Z,44
2016-12-13T07:24:42.352Z,48
2016-12-13T07:25:42.328Z,60
2016-12-13T07:26:42.309Z,64
2016-12-13T07:27:42.302Z,80
2016-12-13T07:28:42.280Z,92
2016-12-13T07:29:42.258Z,108
2016-12-13T07:30:42.235Z,128
2016-12-13T07:31:42.218Z,148
2016-12-13T07:32:42.201Z,164
2016-12-13T07:33:42.183Z,184
2016-12-13T07:34:42.165Z,200
2016-12-13T07:35:42.473Z,216
2016-12-13T07:36:42.132Z,228
2016-12-13T07:37:42.435Z,236
2016-12-13T07:38:42.722Z,248
2016-12-13T07:39:42.079Z,256
2016-12-13T07:40:42.062Z,264
2016-12-13T07:41:42.050Z,272
2016-12-13T07:42:42.345Z,276
2016-12-13T07:43:42.325Z,284
2016-12-13T07:44:41.994Z,292
2016-12-13T07:45:41.978Z,296
2016-12-13T07:46:41.962Z,312
2016-12-13T07:47:41.944Z,320
2016-12-13T07:48:41.979Z,328
2016-12-13T07:49:41.909Z,340
2016-12-13T07:50:41.891Z,348
2016-12-13T07:51:42.187Z,344
2016-12-13T07:52:42.169Z,332
2016-12-13T07:53:41.876Z,316
2016-12-13T07:54:41.827Z,308
2016-12-13T07:55:41.853Z,308
2016-12-13T07:56:41.787Z,324
2016-12-13T07:57:41.775Z,340
2016-12-13T07:58:42.065Z,360
2016-12-13T07:59:41.736Z,376
2016-12-13T08:00:41.714Z,376
2016-12-13T08:01:41.696Z,368
2016-12-13T08:02:41.683Z,360
2016-12-13T08:03:41.662Z,360
2016-12-13T08:04:41.657Z,360
2016-12-13T08:05:41.642Z,364
2016-12-13T08:06:41.618Z,376
2016-12-13T08:07:41.906Z,380
2016-12-13T08:08:41.584Z,392
2016-12-13T08:09:41.871Z,396
2016-12-13T08:10:41.550Z,384
2016-12-13T08:11:41.536Z,364
2016-12-13T08:12:41.820Z,356
2016-12-13T08:13:41.494Z,360
2016-12-13T08:14:41.474Z,372
2016-12-13T08:15:41.971Z,372
2016-12-13T08:16:41.457Z,352
2016-12-13T08:17:41.418Z,340
2016-12-13T08:18:41.410Z,340
2016-12-13T08:19:41.446Z,336
2016-12-13T08:20:41.373Z,328
2016-12-13T08:21:41.359Z,316
2016-12-13T08:22:41.650Z,328
2016-12-13T08:23:41.641Z,340
2016-12-13T08:24:41.306Z,352
2016-12-13T08:25:41.287Z,364
2016-12-13T08:26:41.269Z,364
2016-12-13T08:27:41.568Z,364
2016-12-13T08:28:41.250Z,364
2016-12-13T08:29:41.212Z,376
2016-12-13T08:30:41.208Z,400
2016-12-13T08:31:41.182Z,424
2016-12-13T08:32:41.164Z,436
2016-12-13T08:33:41.171Z,444
2016-12-13T08:34:41.133Z,460
2016-12-13T08:35:41.111Z,476
2016-12-13T08:36:41.091Z,472
2016-12-13T08:37:41.129Z,472
2016-12-13T08:38:41.064Z,488
2016-12-13T08:39:41.041Z,512
2016-12-13T08:40:41.027Z,508
2016-12-13T08:41:41.006Z,508
2016-12-13T08:42:41.040Z,508
2016-12-13T08:43:40.969Z,508
2016-12-13T08:44:41.580Z,500
2016-12-13T08:45:40.933Z,504
2016-12-13T08:46:41.255Z,500
2016-12-13T08:47:40.905Z,500
2016-12-13T08:48:41.215Z,500
2016-12-13T08:49:40.927Z,504
2016-12-13T08:50:40.853Z,512
2016-12-13T08:51:40.845Z,528
2016-12-13T08:52:40.819Z,552
2016-12-13T08:53:41.118Z,576
2016-12-13T08:54:40.785Z,588
2016-12-13T08:55:41.079Z,580
2016-12-13T08:56:40.749Z,564
2016-12-13T08:57:41.043Z,564
2016-12-13T08:58:40.714Z,572
2016-12-13T08:59:40.696Z,592
2016-12-13T09:00:40.689Z,580
2016-12-13T09:01:40.664Z,572
2016-12-13T09:02:40.648Z,584
2016-12-13T09:03:40.940Z,600
2016-12-13T09:04:40.606Z,616
2016-12-13T09:05:40.908Z,628
2016-12-13T09:06:40.575Z,640
2016-12-13T09:07:40.556Z,672
2016-12-13T09:08:40.547Z,704
2016-12-13T09:09:40.832Z,728
2016-12-13T09:10:40.554Z,748
2016-12-13T09:11:40.495Z,784
2016-12-13T09:12:40.476Z,848
2016-12-13T09:13:40.768Z,888
2016-12-13T09:14:40.746Z,920
2016-12-13T09:15:40.417Z,952
2016-12-13T09:16:40.396Z,988
2016-12-13T09:17:41.016Z,1008
2016-12-13T09:18:40.380Z,1000
2016-12-13T09:19:40.663Z,988
2016-12-13T09:20:40.323Z,1020
2016-12-13T09:21:40.308Z,1108
2016-12-13T09:22:40.297Z,1160
2016-12-13T09:23:40.302Z,1228
2016-12-13T09:24:40.260Z,1276
2016-12-13T09:25:40.239Z,1300
2016-12-13T09:26:40.222Z,1352
2016-12-13T09:27:40.528Z,1416
2016-12-13T09:28:40.189Z,1496
2016-12-13T09:29:40.169Z,1544
2016-12-13T09:30:40.150Z,1548
2016-12-13T09:31:40.131Z,1492
2016-12-13T09:32:40.430Z,1484
2016-12-13T09:33:40.414Z,1480
2016-12-13T09:34:40.083Z,1464
2016-12-13T09:35:40.068Z,1440
2016-12-13T09:36:40.671Z,1356
2016-12-13T09:37:40.142Z,1308
2016-12-13T09:38:40.013Z,1304
2016-12-13T09:39:39.997Z,1320
2016-12-13T09:40:40.291Z,1316
2016-12-13T09:41:40.276Z,1312
2016-12-13T09:42:40.254Z,1312
2016-12-13T09:43:40.240Z,1304
2016-12-13T09:44:39.908Z,1240
2016-12-13T09:45:39.889Z,1268
2016-12-13T09:46:39.874Z,1288
2016-12-13T09:47:40.163Z,1328
2016-12-13T09:48:39.845Z,1316
2016-12-13T09:49:39.819Z,1352
2016-12-13T09:50:40.117Z,1368
2016-12-13T09:51:40.095Z,1360
2016-12-13T09:52:40.079Z,1344
2016-12-13T09:53:39.741Z,1340
2016-12-13T09:54:39.732Z,1356
2016-12-13T09:55:40.019Z,1372
2016-12-13T09:56:40.006Z,1380
2016-12-13T09:57:39.670Z,1364
2016-12-13T09:58:39.680Z,1332
2016-12-13T09:59:39.954Z,1296
2016-12-13T10:00:39.935Z,1276
2016-12-13T10:01:39.603Z,1236
2016-12-13T10:02:39.585Z,1212
2016-12-13T10:03:39.562Z,1188
2016-12-13T10:04:39.861Z,1184
2016-12-13T10:05:39.854Z,1268
2016-12-13T10:06:39.512Z,1252
2016-12-13T10:07:39.497Z,1264
2016-12-13T10:08:39.473Z,1268
2016-12-13T10:09:39.466Z,1268
2016-12-13T10:10:39.446Z,1276
2016-12-13T10:11:39.740Z,1256
2016-12-13T10:12:39.400Z,1232
2016-12-13T10:13:39.703Z,1264
2016-12-13T10:14:39.683Z,1220
2016-12-13T10:15:39.864Z,1244
2016-12-13T10:16:39.345Z,1316
2016-12-13T10:17:39.318Z,1376
2016-12-13T10:18:39.614Z,1428
2016-12-13T10:19:39.595Z,1464
2016-12-13T10:20:39.262Z,1476
2016-12-13T10:21:39.609Z,1468
2016-12-13T10:22:39.225Z,1472
2016-12-13T10:23:39.518Z,1464
2016-12-13T10:24:39.189Z,1500
2016-12-13T10:25:39.200Z,1592
2016-12-13T10:26:39.151Z,1656
2016-12-13T10:27:39.134Z,1644
2016-12-13T10:28:39.120Z,1664
2016-12-13T10:29:39.099Z,1712
2016-12-13T10:30:39.086Z,1764
2016-12-13T10:31:39.059Z,1776
2016-12-13T10:32:39.358Z,1800
2016-12-13T10:33:39.023Z,1832
2016-12-13T10:34:39.008Z,1836
2016-12-13T10:35:38.987Z,1860
2016-12-13T10:36:38.969Z,1916
2016-12-13T10:37:38.949Z,1940
2016-12-13T10:38:39.254Z,1928
2016-12-13T10:39:39.228Z,1972
2016-12-13T10:40:38.896Z,2024
2016-12-13T10:41:39.193Z,2088
2016-12-13T10:42:39.172Z,2116
2016-12-13T10:43:38.843Z,2124
2016-12-13T10:44:39.142Z,2068
2016-12-13T10:45:39.120Z,2008
2016-12-13T10:46:39.099Z,2008
2016-12-13T10:47:38.776Z,1936
2016-12-13T10:48:39.067Z,1788
2016-12-13T10:49:39.045Z,1712
2016-12-13T10:50:38.718Z,1676
2016-12-13T10:51:39.016Z,1660
2016-12-13T10:52:38.998Z,1676
2016-12-13T10:53:38.663Z,1668
2016-12-13T10:54:38.651Z,1692
2016-12-13T10:55:38.628Z,1788
2016-12-13T10:56:38.613Z,1864
2016-12-13T10:57:38.597Z,1860
2016-12-13T10:58:38.571Z,1772
2016-12-13T10:59:38.556Z,1768
2016-12-13T11:00:38.542Z,1744
2016-12-13T11:01:38.521Z,1672
2016-12-13T11:02:39.126Z,1648
2016-12-13T11:03:38.794Z,1636
2016-12-13T11:04:38.464Z,1604
2016-12-13T11:05:38.763Z,1564
2016-12-13T11:06:38.429Z,1484
2016-12-13T11:07:38.409Z,1372
2016-12-13T11:08:38.392Z,1396
2016-12-13T11:09:38.373Z,1516
2016-12-13T11:10:38.667Z,1704
2016-12-13T11:11:38.342Z,1920
2016-12-13T11:12:38.650Z,1964
2016-12-13T11:13:38.309Z,2048
2016-12-13T11:14:38.293Z,2172
2016-12-13T11:15:38.588Z,2180
2016-12-13T11:16:38.254Z,2244
2016-12-13T11:17:38.547Z,2304
2016-12-13T11:18:38.530Z,2328
2016-12-13T11:19:38.190Z,2368
2016-12-13T11:20:38.181Z,2496
2016-12-13T11:21:38.161Z,2552
2016-12-13T11:22:38.143Z,2520
2016-12-13T11:23:38.439Z,2428
2016-12-13T11:24:38.106Z,2304
2016-12-13T11:25:38.720Z,2224
2016-12-13T11:26:38.067Z,2280
2016-12-13T11:27:38.371Z,2380
2016-12-13T11:28:38.349Z,2320
2016-12-13T11:29:38.333Z,2272
2016-12-13T11:30:38.334Z,2128
2016-12-13T11:31:37.984Z,2020
2016-12-13T11:32:38.284Z,2112
2016-12-13T11:33:37.945Z,2008
2016-12-13T11:34:38.256Z,1924
2016-12-13T11:35:38.223Z,1900
2016-12-13T11:36:37.891Z,1792
2016-12-13T11:37:37.872Z,1696
2016-12-13T11:38:37.859Z,1620
2016-12-13T11:39:37.835Z,1644
2016-12-13T11:40:38.140Z,1588
2016-12-13T11:41:37.831Z,1524
2016-12-13T11:42:38.095Z,1520
2016-12-13T11:43:37.762Z,1424
2016-12-13T11:44:37.746Z,1476
2016-12-13T11:45:37.725Z,1336
2016-12-13T11:46:37.719Z,1288
2016-12-13T11:47:38.003Z,1404
2016-12-13T11:48:37.672Z,1240
2016-12-13T11:49:37.654Z,1120
2016-12-13T11:50:37.643Z,1276
2016-12-13T11:51:37.625Z,1228
2016-12-13T11:52:37.920Z,1204
2016-12-13T11:53:37.586Z,1132
2016-12-13T11:54:37.877Z,1168
2016-12-13T11:55:37.545Z,1212
2016-12-13T11:56:37.848Z,1232
2016-12-13T11:57:37.544Z,1292
2016-12-13T11:58:37.493Z,1292
2016-12-13T11:59:37.477Z,1620
2016-12-13T12:00:37.461Z,1552
2016-12-13T12:01:37.444Z,1684
2016-12-13T12:02:37.736Z,1720
2016-12-13T12:03:37.458Z,1664
2016-12-13T12:04:37.388Z,1688
2016-12-13T12:05:37.432Z,1704
2016-12-13T12:06:37.696Z,1708
2016-12-13T12:07:37.655Z,1700
2016-12-13T12:08:37.323Z,1772
2016-12-13T12:09:37.615Z,1808
2016-12-13T12:10:37.278Z,2040
2016-12-13T12:11:37.575Z,2072
2016-12-13T12:12:37.248Z,2288
2016-12-13T12:13:37.225Z,2356
2016-12-13T12:14:37.209Z,2312
2016-12-13T12:15:37.404Z,2372
2016-12-13T12:16:37.208Z,2304
2016-12-13T12:17:37.832Z,2660
2016-12-13T12:18:37.226Z,2652
2016-12-13T12:19:37.759Z,2652
2016-12-13T12:20:37.103Z,2728
2016-12-13T12:21:37.082Z,2908
2016-12-13T12:22:37.402Z,2808
2016-12-13T12:23:37.047Z,2828
2016-12-13T12:24:37.351Z,2656
2016-12-13T12:25:37.322Z,2476
2016-12-13T12:26:37.306Z,2488
2016-12-13T12:27:36.980Z,2336
2016-12-13T12:28:36.963Z,2240
2016-12-13T12:29:36.948Z,2464
2016-12-13T12:30:36.927Z,2292
2016-12-13T12:31:36.910Z,2148
2016-12-13T12:32:36.897Z,2056
2016-12-13T12:33:36.869Z,1820
2016-12-13T12:34:37.497Z,1728
2016-12-13T12:35:36.849Z,1624
2016-12-13T12:36:36.815Z,1636
2016-12-13T12:37:36.798Z,1552
2016-12-13T12:38:36.782Z,1536
2016-12-13T12:39:36.769Z,1440
2016-12-13T12:40:36.746Z,1364
2016-12-13T12:41:36.732Z,1348
2016-12-13T12:42:37.355Z,1192
2016-12-13T12:43:36.705Z,1212
2016-12-13T12:44:36.681Z,1144
2016-12-13T12:45:36.985Z,1180
2016-12-13T12:46:36.641Z,1340
2016-12-13T12:47:36.638Z,1392
2016-12-13T12:48:36.608Z,1424
2016-12-13T12:49:36.583Z,1324
2016-12-13T12:50:36.571Z,1364
2016-12-13T12:51:36.561Z,1464
2016-12-13T12:52:36.537Z,1364
2016-12-13T12:53:36.520Z,1304
2016-12-13T12:54:37.132Z,1252
2016-12-13T12:55:36.538Z,1256
2016-12-13T12:56:36.466Z,1376
2016-12-13T12:57:36.455Z,1336
2016-12-13T12:58:36.439Z,1340
2016-12-13T12:59:36.414Z,1256
2016-12-13T13:00:36.400Z,1328
2016-12-13T13:01:36.381Z,1324
2016-12-13T13:02:36.366Z,1428
2016-12-13T13:03:36.359Z,1432
2016-12-13T13:04:36.329Z,1432
2016-12-13T13:05:36.319Z,1388
2016-12-13T13:06:36.297Z,1232
2016-12-13T13:07:36.283Z,856
2016-12-13T13:08:36.578Z,664
2016-12-13T13:09:36.252Z,692
2016-12-13T13:10:36.540Z,716
2016-12-13T13:11:36.218Z,768
2016-12-13T13:12:36.508Z,808
2016-12-13T13:13:36.179Z,892
2016-12-13T13:14:36.159Z,928
2016-12-13T13:15:36.145Z,952
2016-12-13T13:16:36.127Z,1080
2016-12-13T13:17:36.107Z,1112
2016-12-13T13:18:36.721Z,1244
2016-12-13T13:19:36.072Z,1468
2016-12-13T13:20:36.065Z,1508
2016-12-13T13:21:36.057Z,1432
2016-12-13T13:22:36.346Z,1244
2016-12-13T13:23:36.323Z,1164
2016-12-13T13:24:37.013Z,1076
2016-12-13T13:25:36.303Z,1092
2016-12-13T13:26:35.958Z,1124
2016-12-13T13:27:35.939Z,1100
2016-12-13T13:28:35.975Z,1060
2016-12-13T13:29:35.900Z,1048
2016-12-13T13:30:35.885Z,1008
2016-12-13T13:31:35.891Z,992
2016-12-13T13:32:36.175Z,1000
2016-12-13T13:33:35.841Z,1072
2016-12-13T13:34:35.822Z,1024
2016-12-13T13:35:36.122Z,1040
2016-12-13T13:36:35.787Z,1100
2016-12-13T13:37:36.394Z,1076
2016-12-13T13:38:35.778Z,1064
2016-12-13T13:39:36.103Z,1124
2016-12-13T13:40:35.729Z,1012
2016-12-13T13:41:35.708Z,896
2016-12-13T13:42:35.694Z,1120
2016-12-13T13:43:35.989Z,1208
2016-12-13T13:44:35.656Z,1224
2016-12-13T13:45:35.953Z,1076
2016-12-13T13:46:35.623Z,972
2016-12-13T13:47:35.599Z,1260
2016-12-13T13:48:35.587Z,1116
2016-12-13T13:49:35.880Z,1124
2016-12-13T13:50:35.872Z,1120
2016-12-13T13:51:35.529Z,1316
2016-12-13T13:52:35.515Z,1428
2016-12-13T13:53:35.810Z,1356
2016-12-13T13:54:35.486Z,1320
2016-12-13T13:55:35.519Z,1508
2016-12-13T13:56:35.453Z,1480
2016-12-13T13:57:35.482Z,1384
2016-12-13T13:58:35.418Z,1452
2016-12-13T13:59:35.732Z,1516
2016-12-13T14:00:35.405Z,1568
2016-12-13T14:01:35.383Z,1816
2016-12-13T14:02:35.682Z,1976
2016-12-13T14:03:35.666Z,1672
2016-12-13T14:04:35.641Z,1360
2016-12-13T14:05:35.942Z,1636
2016-12-13T14:06:35.297Z,1896